createdAt,value
2022-10-12T00:00:58.103Z,5.00
2022-10-12T00:03:26.691Z,4.60
2022-10-12T00:06:02.723Z,4.43
2022-10-12T00:08:31.518Z,4.70
2022-10-12T00:11:01.757Z,4.90
2022-10-12T00:13:39.773Z,4.00
2022-10-12T00:16:09.559Z,5.00
2022-10-12T00:18:37.758Z,4.90
2022-10-12T00:21:09.721Z,5.43
2022-10-12T00:23:39.020Z,4.83
2022-10-12T00:26:18.615Z,4.33
2022-10-12T00:28:48.585Z,5.20
2022-10-12T00:31:18.424Z,4.40
2022-10-12T00:33:46.775Z,5.37
2022-10-12T00:36:17.442Z,4.23
2022-10-12T00:38:48.862Z,5.17
2022-10-12T00:41:22.558Z,5.10
2022-10-12T00:43:57.948Z,4.60
2022-10-12T00:46:31.455Z,4.70
2022-10-12T00:49:07.203Z,4.40
2022-10-12T00:51:38.741Z,4.20
2022-10-12T00:54:13.680Z,4.00
2022-10-12T00:56:45.537Z,3.87
2022-10-12T00:59:20.460Z,4.50
2022-10-12T01:01:48.382Z,3.97
2022-10-12T01:04:23.922Z,4.10
2022-10-12T01:06:59.484Z,3.40
2022-10-12T01:09:29.039Z,3.70
2022-10-12T01:11:58.449Z,4.17
2022-10-12T01:14:28.283Z,3.70
2022-10-12T01:17:01.739Z,3.40
2022-10-12T01:19:57.130Z,3.83
2022-10-12T01:22:33.303Z,4.37
2022-10-12T01:25:11.201Z,3.53
2022-10-12T01:27:46.738Z,4.83
2022-10-12T01:30:30.579Z,3.70
2022-10-12T01:33:22.796Z,4.27
2022-10-12T01:36:02.059Z,3.83
2022-10-12T01:38:41.430Z,5.60
2022-10-12T01:41:24.822Z,3.23
2022-10-12T01:43:56.306Z,4.00
2022-10-12T01:46:48.111Z,4.33
2022-10-12T01:49:19.413Z,2.83
2022-10-12T01:51:56.433Z,3.50
2022-10-12T01:54:36.511Z,4.20
2022-10-12T01:57:17.020Z,4.23
2022-10-12T01:59:53.065Z,3.47
2022-10-12T02:02:30.127Z,5.70
2022-10-12T02:05:05.658Z,4.03
2022-10-12T02:07:42.236Z,3.23
2022-10-12T02:10:17.995Z,3.03
2022-10-12T02:12:48.304Z,3.67
2022-10-12T02:15:18.363Z,3.33
2022-10-12T02:17:50.980Z,3.50
2022-10-12T02:20:24.706Z,3.50
2022-10-12T02:22:56.058Z,3.90
2022-10-12T02:25:26.696Z,3.23
2022-10-12T02:28:00.674Z,3.20
2022-10-12T02:33:19.110Z,4.20
2022-10-12T02:35:59.007Z,3.50
2022-10-12T02:38:33.066Z,3.60
2022-10-12T02:41:05.816Z,2.80
2022-10-12T02:43:39.189Z,3.57
2022-10-12T02:46:10.260Z,2.53
2022-10-12T02:48:52.843Z,3.13
2022-10-12T02:51:22.714Z,4.17
2022-10-12T02:53:51.786Z,3.43
2022-10-12T02:56:21.733Z,3.20
2022-10-12T02:58:50.287Z,3.50
2022-10-12T03:01:18.434Z,3.30
2022-10-12T03:03:47.837Z,3.50
2022-10-12T03:06:16.283Z,5.13
2022-10-12T03:08:44.083Z,3.70
2022-10-12T03:11:14.463Z,4.00
2022-10-12T03:13:54.522Z,4.30
2022-10-12T03:16:28.275Z,4.23
2022-10-12T03:19:06.301Z,4.40
2022-10-12T03:21:36.578Z,4.53
2022-10-12T03:24:04.544Z,3.90
2022-10-12T03:26:32.399Z,4.03
2022-10-12T03:29:03.689Z,3.80
2022-10-12T03:31:31.499Z,3.90
2022-10-12T03:34:00.630Z,3.23
2022-10-12T03:36:37.751Z,3.40
2022-10-12T03:39:05.587Z,3.63
2022-10-12T03:41:33.360Z,3.53
2022-10-12T03:44:06.959Z,2.90
2022-10-12T03:46:40.580Z,4.00
2022-10-12T03:49:10.446Z,3.63
2022-10-12T03:51:38.250Z,3.93
2022-10-12T03:54:08.746Z,3.70
2022-10-12T03:56:37.466Z,4.10
2022-10-12T03:59:05.846Z,4.37
2022-10-12T04:01:36.261Z,4.00
2022-10-12T04:04:07.581Z,4.60
2022-10-12T04:06:39.470Z,4.07
2022-10-12T04:09:07.792Z,3.43
2022-10-12T04:11:41.778Z,3.83
2022-10-12T04:14:12.351Z,3.73
2022-10-12T04:16:46.434Z,4.40
2022-10-12T04:19:17.202Z,4.77
2022-10-12T04:21:46.809Z,4.20
2022-10-12T04:24:17.429Z,3.83
2022-10-12T04:26:45.643Z,4.13
2022-10-12T04:29:16.179Z,4.30
2022-10-12T04:31:44.275Z,4.57
2022-10-12T04:34:17.408Z,4.37
2022-10-12T04:36:46.589Z,5.93
2022-10-12T04:39:17.125Z,4.17
2022-10-12T04:41:44.919Z,4.13
2022-10-12T04:44:14.866Z,4.53
2022-10-12T04:46:45.230Z,4.80
2022-10-12T04:49:19.248Z,4.70
2022-10-12T04:51:51.167Z,4.13
2022-10-12T04:54:21.972Z,4.23
2022-10-12T04:56:50.205Z,5.43
2022-10-12T04:59:18.004Z,4.60
2022-10-12T05:01:51.217Z,5.03
2022-10-12T05:04:21.627Z,4.70
2022-10-12T05:06:50.822Z,5.27
2022-10-12T05:09:18.900Z,4.00
2022-10-12T05:11:47.223Z,4.70
2022-10-12T05:14:15.090Z,5.30
2022-10-12T05:16:42.891Z,4.67
2022-10-12T05:19:10.722Z,5.67
2022-10-12T05:21:40.104Z,4.03
2022-10-12T05:24:09.630Z,4.20
2022-10-12T05:26:38.016Z,4.50
2022-10-12T05:29:06.162Z,4.80
2022-10-12T05:31:33.997Z,4.50
2022-10-12T05:34:05.150Z,5.20
2022-10-12T05:36:32.962Z,5.63
2022-10-12T05:39:03.109Z,4.70
2022-10-12T05:41:32.647Z,5.07
2022-10-12T05:44:03.650Z,4.13
2022-10-12T05:46:32.054Z,4.20
2022-10-12T05:48:59.899Z,4.00
2022-10-12T05:51:29.084Z,5.13
2022-10-12T05:54:00.235Z,4.57
2022-10-12T05:56:28.072Z,3.73
2022-10-12T05:58:57.238Z,4.90
2022-10-12T06:01:28.385Z,4.27
2022-10-12T06:03:56.210Z,4.77
2022-10-12T06:06:24.702Z,3.80
2022-10-12T06:08:52.641Z,4.23
2022-10-12T06:11:31.469Z,3.60
2022-10-12T06:14:11.514Z,4.70
2022-10-12T06:16:39.551Z,4.43
2022-10-12T06:19:07.398Z,4.40
2022-10-12T06:21:35.644Z,4.57
2022-10-12T06:24:03.451Z,5.20
2022-10-12T06:26:31.300Z,3.63
2022-10-12T06:29:01.748Z,4.33
2022-10-12T06:31:32.682Z,5.30
2022-10-12T06:34:00.734Z,5.17
2022-10-12T06:36:34.009Z,4.40
2022-10-12T06:39:01.853Z,4.97
2022-10-12T06:41:29.667Z,5.17
2022-10-12T06:44:03.006Z,4.63
2022-10-12T06:46:32.183Z,5.93
2022-10-12T06:49:00.759Z,5.37
2022-10-12T06:51:28.561Z,4.57
2022-10-12T06:54:03.192Z,6.30
2022-10-12T06:56:31.278Z,4.90
2022-10-12T06:59:02.134Z,5.70
2022-10-12T07:01:32.418Z,4.50
2022-10-12T07:04:03.969Z,4.37
2022-10-12T07:06:32.231Z,5.10
2022-10-12T07:09:01.100Z,5.37
2022-10-12T07:11:34.332Z,5.40
2022-10-12T07:14:02.188Z,6.10
2022-10-12T07:16:32.038Z,6.30
2022-10-12T07:19:01.740Z,5.77
2022-10-12T07:21:34.556Z,6.93
2022-10-12T07:24:02.770Z,6.80
2022-10-12T07:26:33.694Z,7.00
2022-10-12T07:29:04.946Z,7.80
2022-10-12T07:31:32.727Z,7.20
2022-10-12T07:34:01.896Z,7.20
2022-10-12T07:36:57.639Z,6.53
2022-10-12T07:39:24.260Z,6.03
2022-10-12T07:41:53.183Z,4.90
2022-10-12T07:44:24.449Z,6.20
2022-10-12T07:46:55.364Z,6.53
2022-10-12T07:49:26.851Z,6.30
2022-10-12T07:51:54.669Z,5.40
2022-10-12T07:54:28.376Z,4.87
2022-10-12T07:56:57.391Z,6.57
2022-10-12T07:59:30.896Z,5.50
2022-10-12T08:02:01.093Z,5.03
2022-10-12T08:04:30.691Z,5.60
2022-10-12T08:06:59.483Z,5.00
2022-10-12T08:09:30.288Z,5.27
2022-10-12T08:11:58.640Z,5.90
2022-10-12T08:14:26.425Z,4.93
2022-10-12T08:16:54.260Z,4.50
2022-10-12T08:19:30.618Z,5.63
2022-10-12T08:22:02.344Z,5.67
2022-10-12T08:24:32.963Z,6.37
2022-10-12T08:27:10.612Z,5.37
2022-10-12T08:29:39.910Z,5.67
2022-10-12T08:32:07.858Z,4.10
2022-10-12T08:34:36.044Z,4.00
2022-10-12T08:37:05.185Z,3.30
2022-10-12T08:39:33.756Z,3.30
2022-10-12T08:42:14.828Z,3.67
2022-10-12T08:45:05.414Z,3.10
2022-10-12T08:47:39.123Z,3.30
2022-10-12T08:50:15.084Z,3.80
2022-10-12T08:52:53.385Z,4.53
2022-10-12T08:55:34.274Z,3.60
2022-10-12T08:58:02.540Z,3.53
2022-10-12T09:00:34.895Z,3.30
2022-10-12T09:03:15.995Z,3.63
2022-10-12T09:05:51.911Z,4.00
2022-10-12T09:08:35.819Z,3.87
2022-10-12T09:11:33.433Z,4.23
2022-10-12T09:14:09.156Z,3.10
2022-10-12T09:16:41.896Z,3.03
2022-10-12T09:19:19.238Z,3.40
2022-10-12T09:21:49.140Z,3.90
2022-10-12T09:24:23.347Z,4.20
2022-10-12T09:26:54.071Z,3.67
2022-10-12T09:29:29.681Z,3.10
2022-10-12T09:32:16.787Z,4.10
2022-10-12T09:34:45.752Z,3.03
2022-10-12T09:37:24.664Z,4.03
2022-10-12T09:39:57.036Z,3.90
2022-10-12T09:42:27.637Z,3.63
2022-10-12T09:45:10.591Z,3.70
2022-10-12T09:47:38.424Z,2.93
2022-10-12T09:50:10.767Z,3.00
2022-10-12T09:52:45.991Z,2.50
2022-10-12T09:55:30.195Z,3.00
2022-10-12T09:58:00.298Z,2.77
2022-10-12T10:00:33.046Z,2.50
2022-10-12T10:03:02.436Z,2.67
2022-10-12T10:05:31.739Z,3.33
2022-10-12T10:08:19.575Z,3.30
2022-10-12T10:10:51.900Z,2.90
2022-10-12T10:13:28.983Z,3.30
2022-10-12T10:16:05.867Z,3.27
2022-10-12T10:18:39.104Z,3.40
2022-10-12T10:21:12.574Z,2.67
2022-10-12T10:23:44.576Z,3.70
2022-10-12T10:28:54.645Z,3.50
2022-10-12T10:31:33.648Z,3.50
2022-10-12T10:34:12.119Z,3.80
2022-10-12T10:36:45.302Z,3.10
2022-10-12T10:39:23.715Z,3.07
2022-10-12T10:41:56.714Z,3.50
2022-10-12T10:44:33.576Z,2.83
2022-10-12T10:47:04.581Z,3.33
2022-10-12T10:49:41.556Z,2.97
2022-10-12T10:52:22.672Z,3.40
2022-10-12T10:54:50.662Z,3.10
2022-10-12T10:57:23.621Z,3.10
2022-10-12T10:59:55.789Z,3.47
2022-10-12T11:02:33.437Z,3.03
2022-10-12T11:05:09.154Z,2.50
2022-10-12T11:07:41.772Z,3.47
2022-10-12T11:10:24.473Z,3.53
2022-10-12T11:13:00.594Z,2.53
2022-10-12T11:15:35.118Z,3.63
2022-10-12T11:18:16.984Z,2.53
2022-10-12T11:20:55.302Z,3.17
2022-10-12T11:23:36.494Z,3.00
2022-10-12T11:26:17.171Z,2.70
2022-10-12T11:28:46.558Z,3.50
2022-10-12T11:31:21.377Z,2.57
2022-10-12T11:33:51.662Z,2.53
2022-10-12T11:36:23.613Z,3.03
2022-10-12T11:38:59.427Z,2.13
2022-10-12T11:41:45.008Z,2.17
2022-10-12T11:44:34.058Z,1.80
2022-10-12T11:47:04.847Z,1.80
2022-10-12T11:49:45.892Z,1.70
2022-10-12T11:52:16.035Z,1.87
2022-10-12T11:54:58.601Z,2.70
2022-10-12T11:57:33.067Z,1.90
2022-10-12T12:00:08.465Z,2.03
2022-10-12T12:02:43.777Z,2.27
2022-10-12T12:05:17.355Z,3.07
2022-10-12T12:07:48.951Z,2.00
2022-10-12T12:10:55.899Z,1.73
2022-10-12T12:13:27.051Z,1.90
2022-10-12T12:16:34.589Z,2.47
2022-10-12T12:19:41.675Z,2.60
2022-10-12T12:22:16.494Z,2.43
2022-10-12T12:25:11.820Z,2.77
2022-10-12T12:27:42.367Z,2.77
2022-10-12T12:30:29.097Z,2.27
2022-10-12T12:32:59.631Z,2.80
2022-10-12T12:35:43.949Z,2.07
2022-10-12T12:38:26.004Z,2.13
2022-10-12T12:41:04.130Z,2.03
2022-10-12T12:43:55.252Z,2.50
2022-10-12T12:46:25.175Z,2.90
2022-10-12T12:49:01.942Z,2.97
2022-10-12T12:51:41.686Z,3.20
2022-10-12T12:54:19.710Z,2.67
2022-10-12T12:57:10.372Z,3.30
2022-10-12T13:00:18.828Z,2.90
2022-10-12T13:03:14.916Z,3.10
2022-10-12T13:06:17.661Z,3.07
2022-10-12T13:09:03.447Z,3.20
2022-10-12T13:11:48.739Z,3.60
2022-10-12T13:14:39.971Z,3.03
2022-10-12T13:17:38.196Z,3.27
2022-10-12T13:20:17.175Z,3.40
2022-10-12T13:22:46.852Z,3.90
2022-10-12T13:25:23.234Z,3.73
2022-10-12T13:27:55.924Z,4.10
2022-10-12T13:30:33.937Z,3.90
2022-10-12T13:33:09.921Z,3.37
2022-10-12T13:35:51.468Z,3.60
2022-10-12T13:38:31.657Z,3.30
2022-10-12T13:41:07.102Z,3.80
2022-10-12T13:43:41.498Z,3.80
2022-10-12T13:46:13.341Z,3.70
2022-10-12T13:48:58.975Z,3.53
2022-10-12T13:51:29.997Z,3.77
2022-10-12T13:54:05.795Z,4.00
2022-10-12T13:56:35.428Z,4.17
2022-10-12T13:59:19.294Z,4.10
2022-10-12T14:04:45.001Z,2.77
2022-10-12T14:07:21.083Z,3.40
2022-10-12T14:10:00.031Z,4.53
2022-10-12T14:12:33.200Z,2.67
2022-10-12T14:15:09.272Z,3.47
2022-10-12T14:17:51.273Z,3.47
2022-10-12T14:20:30.071Z,3.40
2022-10-12T14:23:00.113Z,3.10
2022-10-12T14:25:44.395Z,3.50
2022-10-12T14:28:33.171Z,3.50
2022-10-12T14:31:01.480Z,3.17
2022-10-12T14:33:32.549Z,3.60
2022-10-12T14:36:14.796Z,3.17
2022-10-12T14:38:45.074Z,3.83
2022-10-12T14:41:45.437Z,3.00
2022-10-12T14:44:17.456Z,3.80
2022-10-12T14:46:52.490Z,3.30
2022-10-12T14:49:23.295Z,3.47
2022-10-12T14:51:52.592Z,2.90
2022-10-12T14:54:24.204Z,2.80
2022-10-12T14:56:55.162Z,3.23
2022-10-12T14:59:24.772Z,3.10
2022-10-12T15:01:53.052Z,3.17
2022-10-12T15:04:20.940Z,3.40
2022-10-12T15:06:51.008Z,2.77
2022-10-12T15:09:26.167Z,2.93
2022-10-12T15:11:56.894Z,3.03
2022-10-12T15:14:26.087Z,2.90
2022-10-12T15:16:56.298Z,3.20
2022-10-12T15:19:27.045Z,3.93
2022-10-12T15:21:57.646Z,2.60
2022-10-12T15:24:25.470Z,2.90
2022-10-12T15:26:55.417Z,3.20
2022-10-12T15:29:25.966Z,3.40
2022-10-12T15:31:55.183Z,3.53
2022-10-12T15:34:25.771Z,4.23
2022-10-12T15:36:53.574Z,4.10
2022-10-12T15:39:28.707Z,3.53
2022-10-12T15:44:41.231Z,4.30
2022-10-12T15:47:16.311Z,3.57
2022-10-12T15:49:44.344Z,3.73
2022-10-12T15:52:12.726Z,3.70
2022-10-12T15:54:46.801Z,4.33
2022-10-12T15:57:16.752Z,3.50
2022-10-12T15:59:56.599Z,3.57
2022-10-12T16:02:29.084Z,3.63
2022-10-12T16:05:00.054Z,3.83
2022-10-12T16:07:28.514Z,3.97
2022-10-12T16:09:56.359Z,3.20
2022-10-12T16:12:27.619Z,3.73
2022-10-12T16:14:57.620Z,5.13
2022-10-12T16:17:26.783Z,3.90
2022-10-12T16:19:54.773Z,5.17
2022-10-12T16:22:23.098Z,5.17
2022-10-12T16:24:51.042Z,4.57
2022-10-12T16:27:21.395Z,4.00
2022-10-12T16:29:51.975Z,4.23
2022-10-12T16:32:19.818Z,4.07
2022-10-12T16:34:51.279Z,3.50
2022-10-12T16:37:19.235Z,4.87
2022-10-12T16:39:47.667Z,3.67
2022-10-12T16:42:15.890Z,4.43
2022-10-12T16:44:46.216Z,4.63
2022-10-12T16:47:14.812Z,3.80
2022-10-12T16:49:42.833Z,3.40
2022-10-12T16:52:15.406Z,4.20
2022-10-12T16:54:43.571Z,4.60
2022-10-12T16:57:11.470Z,5.03
2022-10-12T16:59:41.851Z,4.43
2022-10-12T17:02:15.231Z,4.00
2022-10-12T17:04:43.770Z,4.60
2022-10-12T17:07:13.085Z,5.20
2022-10-12T17:09:43.284Z,5.00
2022-10-12T17:12:16.718Z,4.67
2022-10-12T17:14:45.073Z,4.40
2022-10-12T17:17:22.870Z,4.00
2022-10-12T17:19:52.837Z,4.97
2022-10-12T17:22:24.813Z,6.00
2022-10-12T17:24:55.203Z,5.17
2022-10-12T17:27:32.072Z,5.40
2022-10-12T17:30:00.799Z,5.63
2022-10-12T17:32:30.798Z,6.20
2022-10-12T17:34:59.013Z,6.20
2022-10-12T17:37:28.208Z,6.17
2022-10-12T17:39:56.453Z,5.90
2022-10-12T17:42:30.401Z,6.70
2022-10-12T17:45:00.675Z,6.30
2022-10-12T17:47:33.313Z,6.97
2022-10-12T17:50:04.254Z,6.83
2022-10-12T17:52:33.400Z,8.97
2022-10-12T17:55:01.200Z,10.50
2022-10-12T17:57:29.559Z,11.33
2022-10-12T17:59:59.804Z,12.47
2022-10-12T18:02:28.726Z,11.33
2022-10-12T18:04:56.544Z,14.57
2022-10-12T18:07:24.364Z,12.80
2022-10-12T18:09:53.590Z,9.43
2022-10-12T18:12:28.587Z,9.20
2022-10-12T18:14:56.396Z,10.17
2022-10-12T18:17:24.617Z,8.90
2022-10-12T18:19:53.320Z,11.47
2022-10-12T18:22:23.567Z,9.80
2022-10-12T18:24:55.780Z,9.10
2022-10-12T18:27:30.754Z,7.33
2022-10-12T18:30:02.165Z,7.60
2022-10-12T18:32:32.274Z,7.40
2022-10-12T18:35:00.087Z,6.53
2022-10-12T18:37:28.774Z,6.77
2022-10-12T18:39:57.902Z,7.60
2022-10-12T18:42:25.748Z,8.13
2022-10-12T18:44:54.109Z,7.00
2022-10-12T18:47:24.404Z,6.80
2022-10-12T18:49:52.456Z,7.63
2022-10-12T18:52:21.360Z,6.47
2022-10-12T18:54:51.469Z,6.00
2022-10-12T18:57:20.599Z,11.33
2022-10-12T18:59:50.334Z,12.90
2022-10-12T19:02:22.624Z,12.47
2022-10-12T19:04:51.263Z,10.30
2022-10-12T19:07:19.082Z,10.63
2022-10-12T19:09:46.890Z,11.47
2022-10-12T19:12:19.339Z,11.07
2022-10-12T19:14:49.565Z,9.80
2022-10-12T19:17:17.740Z,10.30
2022-10-12T19:19:45.668Z,8.60
2022-10-12T19:22:16.195Z,8.47
2022-10-12T19:24:44.406Z,8.83
2022-10-12T19:27:14.327Z,9.30
2022-10-12T19:29:45.660Z,7.90
2022-10-12T19:32:23.252Z,8.43
2022-10-12T19:34:52.257Z,8.90
2022-10-12T19:37:23.432Z,9.50
2022-10-12T19:39:51.243Z,9.43
2022-10-12T19:42:21.124Z,8.40
2022-10-12T19:44:49.431Z,11.00
2022-10-12T19:47:18.611Z,8.97
2022-10-12T19:49:46.592Z,9.23
2022-10-12T19:52:17.195Z,9.33
2022-10-12T19:54:45.215Z,10.50
2022-10-12T19:57:13.471Z,9.37
2022-10-12T19:59:41.277Z,8.53
2022-10-12T20:02:13.918Z,9.57
2022-10-12T20:04:44.591Z,8.57
2022-10-12T20:07:12.903Z,9.13
2022-10-12T20:09:40.695Z,9.40
2022-10-12T20:12:08.770Z,9.60
2022-10-12T20:14:36.756Z,9.70
2022-10-12T20:17:04.555Z,10.27
2022-10-12T20:19:34.924Z,9.70
2022-10-12T20:22:13.164Z,10.00
2022-10-12T20:24:41.395Z,9.00
2022-10-12T20:27:09.307Z,10.03
2022-10-12T20:29:40.255Z,8.83
2022-10-12T20:32:08.491Z,9.53
2022-10-12T20:34:36.422Z,8.77
2022-10-12T20:37:04.254Z,7.77
2022-10-12T20:39:39.904Z,9.07
2022-10-12T20:42:07.776Z,8.73
2022-10-12T20:44:35.680Z,8.93
2022-10-12T20:47:03.498Z,7.80
2022-10-12T20:49:46.291Z,7.77
2022-10-12T20:52:19.317Z,8.77
2022-10-12T20:54:51.955Z,8.07
2022-10-12T20:57:23.184Z,8.27
2022-10-12T20:59:58.229Z,7.93
2022-10-12T21:02:26.230Z,8.90
2022-10-12T21:04:54.056Z,7.90
2022-10-12T21:07:24.861Z,8.83
2022-10-12T21:09:54.890Z,8.53
2022-10-12T21:12:22.787Z,8.37
2022-10-12T21:14:50.626Z,9.37
2022-10-12T21:17:24.194Z,8.13
2022-10-12T21:19:53.593Z,9.50
2022-10-12T21:22:21.638Z,8.40
2022-10-12T21:24:53.466Z,7.90
2022-10-12T21:27:24.974Z,8.90
2022-10-12T21:29:55.122Z,9.87
2022-10-12T21:35:07.163Z,9.27
2022-10-12T21:37:42.068Z,8.73
2022-10-12T21:40:15.840Z,8.73
2022-10-12T21:42:45.002Z,7.73
2022-10-12T21:45:12.897Z,8.73
2022-10-12T21:47:40.747Z,8.93
2022-10-12T21:50:09.347Z,9.50
2022-10-12T21:52:37.199Z,8.60
2022-10-12T21:55:08.823Z,8.83
2022-10-12T21:57:38.776Z,8.33
2022-10-12T22:00:14.426Z,8.80
2022-10-12T22:02:42.211Z,7.90
2022-10-12T22:05:10.188Z,9.80
2022-10-12T22:07:38.911Z,8.73
2022-10-12T22:10:07.593Z,8.70
2022-10-12T22:12:35.408Z,8.33
2022-10-12T22:15:05.755Z,8.40
2022-10-12T22:17:37.982Z,9.60
2022-10-12T22:20:06.910Z,9.23
2022-10-12T22:22:34.703Z,9.57
2022-10-12T22:25:08.047Z,10.67
2022-10-12T22:27:35.889Z,9.30
2022-10-12T22:30:03.803Z,10.30
2022-10-12T22:32:34.855Z,8.40
2022-10-12T22:35:04.053Z,10.17
2022-10-12T22:37:31.928Z,9.37
2022-10-12T22:40:00.466Z,8.80
2022-10-12T22:42:30.576Z,8.67
2022-10-12T22:45:01.863Z,10.13
2022-10-12T22:47:32.488Z,9.57
2022-10-12T22:50:00.323Z,8.43
2022-10-12T22:52:35.581Z,8.30
2022-10-12T22:55:05.840Z,10.13
2022-10-12T22:57:36.927Z,8.97
2022-10-12T23:00:06.469Z,9.97
2022-10-12T23:02:34.298Z,9.30
2022-10-12T23:05:05.379Z,10.00
2022-10-12T23:07:34.976Z,9.57
2022-10-12T23:10:03.257Z,10.03
2022-10-12T23:12:31.542Z,10.50
2022-10-12T23:15:06.547Z,8.90
2022-10-12T23:17:34.379Z,10.20
2022-10-12T23:20:02.214Z,10.53
2022-10-12T23:22:30.550Z,10.87
2022-10-12T23:25:02.236Z,9.93
2022-10-12T23:27:30.663Z,10.33
2022-10-12T23:29:58.486Z,11.33
2022-10-12T23:32:26.284Z,10.00
2022-10-12T23:34:54.098Z,10.70
2022-10-12T23:37:21.868Z,10.13
2022-10-12T23:39:49.661Z,10.40
2022-10-12T23:42:19.521Z,11.07
2022-10-12T23:44:47.539Z,10.53
2022-10-12T23:47:18.888Z,10.77
2022-10-12T23:49:46.683Z,10.83
2022-10-12T23:52:17.767Z,11.60
2022-10-12T23:54:49.143Z,11.30
2022-10-12T23:57:45.029Z,10.00
